SKCC/CUC METAR and TAF weather

Enter ICAO airport designator
Station Type Date Time Source
SKCC METAR 2021/04/13 02:00 UTC NOAA

SKCC 130200Z 00000KT 9999 SCT020 SCT080 27/23 Q1012 RMK A2989


Station Type Date Time Source
SKCC Decoded METAR 2021/04/13 02:00 UTC NOAA

Cucuta / Camilo Daza, Colombia (SKCC) 07-56N 072-31W 317M
Apr 12, 2021 - 10:00 PM EDT / 2021.04.13 0200 UTC
Wind: Calm:0
Visibility: greater than 7 mile(s):0
Sky conditions: partly cloudy
Temperature: 80 F (27 C)
Dew Point: 73 F (23 C)
Relative Humidity: 78%
Pressure (altimeter): 29.88 in. Hg (1012 hPa)
ob: SKCC 130200Z 00000KT 9999 SCT020 SCT080 27/23 Q1012 RMK A2989
cycle: 2

Station Type Date Time Source
SKCC TAF 2021/04/13 06:36 UTC NOAA

TAF SKCC 130430Z 1306/1406 VRB02KT 9999 SCT020 SCT080
TEMPO 1310/1313 6000 VCFG -DZ SCT012
BECMG 1312/1314 16019KT
BECMG 1320/1322 34008KT TX34/1318Z TN23/1310Z

Example: see airport list